FW2257 Weather Reports


time (UTC)temp
C
wind
direction
speed
KPH
gust
KPH
rain 1hr
cm
rain 24hr
cm
rain mn
cm
humidity
%
barometer
mb
20200229103316 8 45 3.2 4.8 0.00 0.00 0.00 59 1016.8
20200229102316 8 45 1.6 1.6 0.00 0.00 0.00 59 1017.0
20200229101316 8 45 1.6 3.2 0.00 0.00 0.00 59 1017.1
20200229100316 8 45 3.2 4.8 0.00 0.00 0.00 60 1017.1
20200229095316 8 45 3.2 4.8 0.00 0.00 0.00 65 1017.1
20200229094316 8 45 1.6 3.2 0.00 0.00 0.00 65 1017.2
20200229093316 7 45 3.2 4.8 0.00 0.00 0.00 65 1017.3
20200229092316 7 45 1.6 3.2 0.00 0.00 0.00 65 1017.3
20200229091316 7 45 3.2 4.8 0.00 0.00 0.00 64 1017.4
20200229090315 8 45 3.2 4.8 0.00 0.00 0.00 63 1017.3
20200229085315 8 45 4.8 4.8 0.00 0.00 0.00 63 1017.4
20200229084316 8 45 1.6 3.2 0.00 0.00 0.00 62 1017.7
20200229083316 8 45 1.6 1.6 0.00 0.00 0.00 62 1017.7
20200229082315 9 45 3.2 4.8 0.00 0.00 0.00 60 1017.8
20200229081315 10 45 3.2 3.2 0.00 0.00 0.00 57 1017.7
20200229080316 10 45 1.6 3.2 0.00 0.00 0.00 56 1017.8
20200229075315 10 45 3.2 3.2 0.00 0.00 0.00 56 1017.9
20200229074315 9 45 1.6 3.2 0.00 0.00 0.00 57 1018.1
20200229073316 10 45 3.2 3.2 0.00 0.00 0.00 56 1018.1
20200229072316 10 45 1.6 3.2 0.00 0.00 0.00 56 1018.3
20200229071315 10 45 1.6 3.2 0.00 0.00 0.00 56 1018.3
20200229070315 10 45 1.6 3.2 0.00 0.00 0.00 55 1018.4
20200229065316 10 45 1.6 3.2 0.00 0.00 0.00 54 1018.4
20200229064316 10 45 3.2 4.8 0.00 0.00 0.00 55 1018.5
20200229063316 10 45 1.6 3.2 0.00 0.00 0.00 55 1018.5
20200229062316 11 45 3.2 4.8 0.00 0.00 0.00 52 1018.5
20200229061317 11 45 3.2 4.8 0.00 0.00 0.00 53 1018.6
20200229060316 11 45 3.2 4.8 0.00 0.00 0.00 51 1018.6
20200229055316 12 45 4.8 4.8 0.00 0.00 0.00 49 1018.7
20200229054317 12 45 3.2 4.8 0.00 0.00 0.00 47 1018.7
20200229053316 13 45 3.2 4.8 0.00 0.00 0.00 46 1018.5
20200229052316 13 45 3.2 3.2 0.00 0.00 0.00 48 1018.5
20200229051316 13 45 1.6 1.6 0.00 0.00 0.00 46 1018.5
20200229050317 13 45 1.6 3.2 0.00 0.00 0.00 45 1018.3
20200229045316 13 45 1.6 3.2 0.00 0.00 0.00 45 1018.4
20200229044316 13 45 1.6 1.6 0.00 0.00 0.00 48 1018.4
20200229043316 14 0.0 0.0 0.00 0.00 0.00 45 1018.4
20200229042316 16 45 3.2 4.8 0.00 0.00 0.00 40 1018.2
20200229041316 18 270 1.6 6.4 0.00 0.00 0.00 33 1018.3
20200229040316 18 270 1.6 3.2 0.00 0.00 0.00 33 1018.1
20200229035316 18 270 1.6 1.6 0.00 0.00 0.00 34 1018.2
20200229034316 17 270 3.2 4.8 0.00 0.00 0.00 36 1018.3
20200229033316 17 270 1.6 3.2 0.00 0.00 0.00 39 1018.2
20200229032316 17 0.0 1.6 0.00 0.00 0.00 39 1018.1
20200229031316 18 270 1.6 3.2 0.00 0.00 0.00 38 1018.0
20200229030316 19 0.0 0.0 0.00 0.00 0.00 36 1017.9
20200229025316 20 0.0 0.0 0.00 0.00 0.00 32 1017.8
20200229024316 20 0.0 0.0 0.00 0.00 0.00 32 1017.6
20200229023316 20 0.0 0.0 0.00 0.00 0.00 33 1017.6
20200229022316 20 0.0 0.0 0.00 0.00 0.00 32 1017.5
20200229021316 21 0.0 0.0 0.00 0.00 0.00 32 1017.6
20200229020316 21 0.0 0.0 0.00 0.00 0.00 31 1017.7
20200229015316 22 0.0 1.6 0.00 0.00 0.00 30 1017.7
20200229014316 22 270 1.6 3.2 0.00 0.00 0.00 30 1017.7
20200229013316 23 270 6.4 6.4 0.00 0.00 0.00 28 1017.7
20200229012316 23 270 4.8 6.4 0.00 0.00 0.00 26 1017.7
20200229011316 24 225 6.4 12.9 0.00 0.00 0.00 24 1017.7
20200229010316 24 292 4.8 6.4 0.00 0.00 0.00 19 1017.7
20200229005315 25 270 4.8 9.7 0.00 0.00 0.00 17 1017.6
20200229004316 25 270 4.8 6.4 0.00 0.00 0.00 17 1017.4
20200229003316 25 270 11.3 17.7 0.00 0.00 0.00 15 1017.6
20200229002315 26 270 11.3 16.1 0.00 0.00 0.00 15 1017.6
20200229001315 26 270 16.1 25.7 0.00 0.00 0.00 14 1017.5
20200229000316 26 270 14.5 17.7 0.00 0.00 0.00 13 1017.6
20200228235316 26 270 16.1 24.1 0.00 0.00 0.00 14 1017.8
20200228234315 27 270 11.3 17.7 0.00 0.00 0.00 12 1017.3
20200228233316 26 292 9.7 14.5 0.00 0.00 0.00 10 1017.4
20200228232316 26 292 8.0 14.5 0.00 0.00 0.00 12 1017.6
20200228231315 26 270 9.7 12.9 0.00 0.00 0.00 12 1017.7
20200228230315 26 270 14.5 19.3 0.00 0.00 0.00 11 1017.6
20200228225315 27 270 12.9 16.1 0.00 0.00 0.00 12 1017.6
20200228224315 27 270 8.0 12.9 0.00 0.00 0.00 12 1017.5
20200228223316 26 270 8.0 12.9 0.00 0.00 0.00 11 1017.5
20200228222315 26 270 8.0 14.5 0.00 0.00 0.00 11 1017.5
20200228221315 27 270 4.8 6.4 0.00 0.00 0.00 11 1017.7
20200228220315 27 247 4.8 6.4 0.00 0.00 0.00 10 1017.8
20200228215315 27 270 6.4 11.3 0.00 0.00 0.00 10 1017.5
20200228214315 27 247 4.8 6.4 0.00 0.00 0.00 10 1017.4
20200228213315 27 180 4.8 6.4 0.00 0.00 0.00 9 1017.3
20200228212316 27 0.0 1.6 0.00 0.00 0.00 9 1017.4
20200228211315 27 270 4.8 6.4 0.00 0.00 0.00 9 1017.5
20200228210315 27 202 3.2 4.8 0.00 0.00 0.00 10 1017.4
20200228205315 27 202 3.2 3.2 0.00 0.00 0.00 9 1017.3
20200228204315 27 247 3.2 3.2 0.00 0.00 0.00 9 1017.5
20200228203315 27 112 3.2 6.4 0.00 0.00 0.00 10 1017.6
20200228202315 27 112 3.2 6.4 0.00 0.00 0.00 10 1017.8
20200228201315 26 157 4.8 6.4 0.00 0.00 0.00 10 1018.1
20200228200315 26 202 4.8 6.4 0.00 0.00 0.00 11 1018.2
20200228195318 26 45 6.4 9.7 0.00 0.00 0.00 11 1018.5
20200228194317 26 135 3.2 4.8 0.00 0.00 0.00 12 1018.6
20200228193317 26 292 1.6 3.2 0.00 0.00 0.00 14 1018.8
20200228192317 25 135 1.6 3.2 0.00 0.00 0.00 12 1019.0
20200228191317 25 90 4.8 9.7 0.00 0.00 0.00 12 1019.0
20200228190317 24 90 8.0 11.3 0.00 0.00 0.00 15 1019.4
20200228185317 23 135 3.2 4.8 0.00 0.00 0.00 17 1019.4
20200228184317 23 135 4.8 9.7 0.00 0.00 0.00 17 1019.7
20200228183317 22 112 1.6 3.2 0.00 0.00 0.00 19 1019.9
20200228182317 22 135 1.6 1.6 0.00 0.00 0.00 20 1019.9
20200228181317 22 135 1.6 3.2 0.00 0.00 0.00 22 1019.9
20200228180317 21 135 3.2 4.8 0.00 0.00 0.00 25 1019.9
20200228175317 20 112 3.2 3.2 0.00 0.00 0.00 26 1020.0
20200228174317 20 112 3.2 4.8 0.00 0.00 0.00 25 1019.9
20200228173317 18 67 4.8 4.8 0.00 0.00 0.00 26 1019.9
20200228172317 18 45 1.6 3.2 0.00 0.00 0.00 29 1020.0
20200228171317 17 67 6.4 8.0 0.00 0.00 0.00 29 1019.9
20200228170317 17 90 6.4 9.7 0.00 0.00 0.00 32 1019.8
20200228165317 16 45 6.4 9.7 0.00 0.00 0.00 32 1019.7
20200228164317 16 67 4.8 4.8 0.00 0.00 0.00 33 1019.7
20200228163317 16 90 4.8 11.3 0.00 0.00 0.00 33 1019.8
20200228162317 15 45 4.8 6.4 0.00 0.00 0.00 35 1019.7
20200228161316 14 45 4.8 6.4 0.00 0.00 0.00 39 1019.9
20200228160317 13 45 3.2 3.2 0.00 0.00 0.00 43 1019.9
20200228155316 13 45 3.2 3.2 0.00 0.00 0.00 43 1019.7
20200228154317 12 45 3.2 4.8 0.00 0.00 0.00 45 1019.7
20200228153316 12 45 1.6 3.2 0.00 0.00 0.00 46 1019.6
20200228152317 11 45 1.6 1.6 0.00 0.00 0.00 50 1019.5
20200228151316 11 0.0 0.0 0.00 0.00 0.00 50 1019.4
20200228150316 10 45 3.2 4.8 0.00 0.00 0.00 52 1019.2
20200228145316 10 45 3.2 4.8 0.00 0.00 0.00 53 1019.1
20200228144317 9 0.0 0.0 0.00 0.00 0.00 53 1019.1
20200228143317 9 0.0 0.0 0.00 0.00 0.00 56 1019.0
20200228142316 9 0.0 0.0 0.00 0.00 0.00 53 1018.8
20200228141316 9 0.0 0.0 0.00 0.00 0.00 55 1018.7
20200228140316 9 0.0 0.0 0.00 0.00 0.00 53 1018.6
20200228135316 9 0.0 0.0 0.00 0.00 0.00 52 1018.8
20200228134317 9 45 3.2 4.8 0.00 0.00 0.00 52 1018.7
20200228133316 9 45 3.2 4.8 0.00 0.00 0.00 53 1018.6
20200228132316 9 45 3.2 6.4 0.00 0.00 0.00 54 1018.6
20200228131316 9 22 3.2 4.8 0.00 0.00 0.00 57 1018.6
20200228130316 9 0.0 0.0 0.00 0.00 0.00 58 1018.3
20200228125316 9 22 1.6 3.2 0.00 0.00 0.00 54 1018.1
20200228124316 9 22 3.2 4.8 0.00 0.00 0.00 54 1018.2
20200228123316 9 22 1.6 3.2 0.00 0.00 0.00 53 1018.3
20200228122316 9 22 1.6 3.2 0.00 0.00 0.00 54 1018.3
20200228121316 8 22 3.2 4.8 0.00 0.00 0.00 56 1018.2
20200228120316 8 22 3.2 4.8 0.00 0.00 0.00 58 1018.3
20200228115316 8 22 3.2 4.8 0.00 0.00 0.00 55 1018.2
20200228114316 8 22 3.2 4.8 0.00 0.00 0.00 56 1018.3
20200228113316 8 22 6.4 6.4 0.00 0.00 0.00 54 1018.4
20200228112316 8 112 4.8 6.4 0.00 0.00 0.00 54 1018.5
20200228111317 8 112 3.2 4.8 0.00 0.00 0.00 54 1018.2
20200228110316 9 0.0 0.0 0.00 0.00 0.00 52 1018.2
20200228105316 9 0.0 0.0 0.00 0.00 0.00 52 1018.3
20200228104316 9 0.0 0.0 0.00 0.00 0.00 52 1018.4